METAR Data
IDs: Format: Raw Decoded Include TAF

Data at: 1926 UTC 14 Dec 2018

KLBB 141853Z 34014G22KT 10SM CLR 09/M10 A3028 RMK AO2 SLP253 T00891100
KLBB 141753Z 35018G23KT 10SM CLR 07/M09 A3030 RMK AO2 SLP261 T00721094 10072 21022 50008
KLBB 141653Z 35012KT 10SM CLR 05/M10 A3032 RMK AO2 SLP269 T00501100
KLBB 141553Z 34017G24KT 10SM FEW250 02/M10 A3030 RMK AO2 SLP265 T00221100
KLBB 141453Z 34015G24KT 10SM FEW250 M01/M11 A3027 RMK AO2 SLP259 T10111106 51023
KLBB 141353Z 35015KT 10SM FEW250 M02/M11 A3025 RMK AO2 SLP252 T10221106
KLBB 141253Z 34016KT 10SM FEW250 M02/M11 A3023 RMK AO2 SLP244 T10221106
KLBB 141153Z 34018G24KT 10SM FEW250 M02/M10 A3020 RMK AO2 SLP231 T10221100 10006 21022 55001
KLBB 141053Z 34019KT 10SM CLR M02/M10 A3019 RMK AO2 PK WND 34026/1001 SLP225 T10221100
KLBB 140953Z 34019KT 10SM CLR M02/M09 A3019 RMK AO2 SLP225 T10171094
KLBB 140853Z 33020KT 10SM CLR M01/M09 A3020 RMK AO2 SLP228 T10061094 53009
KLBB 140753Z 34019KT 10SM CLR 00/M09 A3018 RMK AO2 PK WND 34026/0731 SLP222 T00001089
KLBB 140653Z 34018KT 10SM CLR 00/M09 A3018 RMK AO2 PK WND 34027/0616 SLP222 T00001089
KLBB 140553Z 34020G26KT 10SM CLR 01/M08 A3017 RMK AO2 PK WND 33026/0553 SLP220 T00061083 10056 20006 400830006 51012
KLBB 140453Z 34019G25KT 10SM CLR 01/M08 A3016 RMK AO2 PK WND 34027/0424 SLP217 T00111083
KLBB 140353Z 34017KT 10SM CLR 02/M08 A3015 RMK AO2 SLP209 T00171078
KLBB 140253Z 34014KT 10SM CLR 03/M08 A3013 RMK AO2 SLP205 T00281078 51031
KLBB 140153Z 34018KT 10SM CLR 03/M08 A3011 RMK AO2 PK WND 35030/0055 SLP196 T00331078
KLBB 140053Z 35021G31KT 10SM FEW250 04/M09 A3008 RMK AO2 PK WND 35034/2354 SLP182 T00441089
KLBB 132353Z 35025G38KT 10SM FEW080 FEW220 SCT250 06/M09 A3003 RMK AO2 PK WND 35038/2345 SLP165 60000 T00561089 10078 20050 53022
KLBB 132253Z 35029G41KT 9SM FEW080 BKN250 07/M09 A3001 RMK AO2 PK WND 35046/2214 SLP151 T00721089
KLBB 132153Z 35034G44KT 8SM FEW085 BKN250 08/M07 A2997 RMK AO2 PK WND 35048/2117 SLP136 LGT BLDU ALQDS T00781072
KLBB 132053Z 35034G50KT 10SM BKN075 BKN095 BKN250 07/M06 A2996 RMK AO2 PK WND 35050/2043 SLP139 60000 T00671061 55001
KLBB 131953Z 36034G42KT 10SM FEW055 FEW120 OVC250 07/M05 A2996 RMK AO2 PK WND 36046/1910 SLP138 T00671050
KLBB 131853Z 36034G47KT 10SM OVC055 06/M04 A2996 RMK AO2 PK WND 36047/1849 RAE13 SLP137 P0000 T00561044
KLBB 131753Z 01031G44KT 10SM -RA BKN036 OVC046 05/M04 A2997 RMK AO2 PK WND 01047/1707 RAB53 SLP140 PCPN VRY LGT P0000 60000 T00501039 10050 20033 51032
KLBB 131653Z 01032G48KT 10SM SCT040 OVC070 04/M03 A2996 RMK AO2 PK WND 01050/1635 SLP134 T00441028
KLBB 131553Z 01027G47KT 10SM SCT034 BKN060 BKN080 OVC250 04/M02 A2991 RMK AO2 PK WND 02049/1502 SLP114 BINOVC NW T00441017
KLBB 131453Z 01030G42KT 10SM FEW032 BKN060 OVC250 04/M02 A2986 RMK AO2 PK WND 02045/1356 RAE25 SLP102 P0000 60000 T00391017 53021
KLBB 131353Z 01026G43KT 10SM -RA SCT025 OVC032 03/M01 A2981 RMK AO2 PK WND 02045/1313 SNB1259E20 SLP085 P0000 T00331006
KLBB 131347Z 01027G40KT 10SM -RA SCT025 OVC030 03/M01 A2980 RMK AO2 PK WND 02045/1313 SNB1259E20 P0000
KLBB 131253Z 02029G40KT 10SM -RA BKN025 OVC030 04/00 A2980 RMK AO2 PK WND 02044/1228 RAE19B42 SLP075 P0000 T00390000
KLBB 131153Z 01027G38KT 10SM -RA SCT025 OVC035 04/M01 A2976 RMK AO2 PK WND 36040/1058 SLP063 P0003 60003 70003 T00391006 10083 20033 53030
KLBB 131107Z 35025G40KT 10SM -RA BKN025 OVC035 05/01 A2975 RMK AO2 PK WND 36040/1058 P0000 T00500011
KLBB 131053Z 36027G37KT 10SM -RA SCT025 BKN035 OVC090 06/01 A2972 RMK AO2 PK WND 34041/1030 RAB10 SLP047 FROPA 40 P0000 T00560011
KLBB 130953Z 30024G30KT 10SM SCT070 OVC090 08/02 A2970 RMK AO2 PK WND 29031/0942 SLP033 T00780017
KLBB 130853Z 25009KT 10SM FEW075 SCT100 SCT180 04/02 A2966 RMK AO2 SLP027 T00440022 57005
KLBB 130753Z 28009KT 10SM FEW090 FEW120 SCT180 05/02 A2967 RMK AO2 SLP031 T00500022